Aeneas, Washington
Current Conditions -  °F | °C
As of 4:53 AM on Tuesday 21 Oct 2014 (Local Time) from KOMK Reporting Station
Overcast Overcast  
Wind Chill: 51°   Ceiling: 3100
Heat Index: 51°   Visibility: 10mi
Dew Point: 47°   Wind: 7mph
Humidity: 86%   Direction: 170°S
Pressure: 29.81"   Gusts: NA
Location:  48.6708°N, 119.278°W
Report Text: KOMK 211153Z AUTO 17006KT 10SM OVC031 11/08 A2981 RMK AO2 SLP095 70007 T01060083 10122 20100 53002
Loading
Personal Weather Stations






























Interactive Weather Map New forecast layout! Learn more

10-Day Weather Forecast

Advertisements
Track Severe Weather on mobile